sensor_id;sensor_type;location;lat;lon;timestamp;temperature;humidity
5520;DHT22;2782;52.362;10.012;2023-03-13T00:00:35;18.60;55.90
5520;DHT22;2782;52.362;10.012;2023-03-13T00:01:38;18.60;55.90
5520;DHT22;2782;52.362;10.012;2023-03-13T00:02:40;18.60;55.90
5520;DHT22;2782;52.362;10.012;2023-03-13T00:03:44;18.60;55.90
5520;DHT22;2782;52.362;10.012;2023-03-13T00:04:46;18.60;55.90
5520;DHT22;2782;52.362;10.012;2023-03-13T00:05:48;18.60;55.90
5520;DHT22;2782;52.362;10.012;2023-03-13T00:06:49;18.60;55.90
5520;DHT22;2782;52.362;10.012;2023-03-13T00:07:50;18.60;55.90
5520;DHT22;2782;52.362;10.012;2023-03-13T00:08:51;18.60;55.90
5520;DHT22;2782;52.362;10.012;2023-03-13T00:09:52;18.60;55.90
5520;DHT22;2782;52.362;10.012;2023-03-13T00:10:53;18.60;55.90
5520;DHT22;2782;52.362;10.012;2023-03-13T00:11:55;18.50;55.90
5520;DHT22;2782;52.362;10.012;2023-03-13T00:12:55;18.50;55.90
5520;DHT22;2782;52.362;10.012;2023-03-13T00:13:59;18.50;55.90
5520;DHT22;2782;52.362;10.012;2023-03-13T00:15:00;18.50;55.90
5520;DHT22;2782;52.362;10.012;2023-03-13T00:16:03;18.50;55.90
5520;DHT22;2782;52.362;10.012;2023-03-13T00:17:04;18.50;55.90
5520;DHT22;2782;52.362;10.012;2023-03-13T00:18:06;18.50;55.90
5520;DHT22;2782;52.362;10.012;2023-03-13T00:19:07;18.50;55.90
5520;DHT22;2782;52.362;10.012;2023-03-13T00:20:11;18.50;55.90
5520;DHT22;2782;52.362;10.012;2023-03-13T00:21:12;18.50;55.90
5520;DHT22;2782;52.362;10.012;2023-03-13T00:22:13;18.50;55.90
5520;DHT22;2782;52.362;10.012;2023-03-13T00:23:14;18.50;56.00
5520;DHT22;2782;52.362;10.012;2023-03-13T00:24:15;18.50;56.00
5520;DHT22;2782;52.362;10.012;2023-03-13T00:25:16;18.40;55.90
5520;DHT22;2782;52.362;10.012;2023-03-13T00:26:20;18.40;55.90
5520;DHT22;2782;52.362;10.012;2023-03-13T00:27:21;18.40;55.90
5520;DHT22;2782;52.362;10.012;2023-03-13T00:28:22;18.40;55.90
5520;DHT22;2782;52.362;10.012;2023-03-13T00:29:23;18.40;55.90
5520;DHT22;2782;52.362;10.012;2023-03-13T00:30:24;18.40;55.90
5520;DHT22;2782;52.362;10.012;2023-03-13T00:31:27;18.40;55.90
5520;DHT22;2782;52.362;10.012;2023-03-13T00:32:29;18.40;55.90
5520;DHT22;2782;52.362;10.012;2023-03-13T00:33:31;18.40;55.90
5520;DHT22;2782;52.362;10.012;2023-03-13T00:34:33;18.40;55.90
5520;DHT22;2782;52.362;10.012;2023-03-13T00:35:35;18.40;56.00
5520;DHT22;2782;52.362;10.012;2023-03-13T00:36:36;18.40;56.00
5520;DHT22;2782;52.362;10.012;2023-03-13T00:37:37;18.40;56.00
5520;DHT22;2782;52.362;10.012;2023-03-13T00:38:39;18.40;56.00
5520;DHT22;2782;52.362;10.012;2023-03-13T00:39:40;18.40;56.00
5520;DHT22;2782;52.362;10.012;2023-03-13T00:40:42;18.40;56.00
5520;DHT22;2782;52.362;10.012;2023-03-13T00:41:42;18.40;56.10
5520;DHT22;2782;52.362;10.012;2023-03-13T00:42:44;18.40;56.00
5520;DHT22;2782;52.362;10.012;2023-03-13T00:43:46;18.40;56.00
5520;DHT22;2782;52.362;10.012;2023-03-13T00:44:48;18.40;56.10
5520;DHT22;2782;52.362;10.012;2023-03-13T00:45:48;18.30;56.00
5520;DHT22;2782;52.362;10.012;2023-03-13T00:46:50;18.30;56.00
5520;DHT22;2782;52.362;10.012;2023-03-13T00:47:51;18.30;56.00
5520;DHT22;2782;52.362;10.012;2023-03-13T00:48:52;18.30;56.00
5520;DHT22;2782;52.362;10.012;2023-03-13T00:49:54;18.30;56.00
5520;DHT22;2782;52.362;10.012;2023-03-13T00:50:56;18.30;56.00
5520;DHT22;2782;52.362;10.012;2023-03-13T00:51:57;18.30;56.00
5520;DHT22;2782;52.362;10.012;2023-03-13T00:52:58;18.30;56.00
5520;DHT22;2782;52.362;10.012;2023-03-13T00:54:00;18.30;56.00
5520;DHT22;2782;52.362;10.012;2023-03-13T00:55:00;18.30;56.00
5520;DHT22;2782;52.362;10.012;2023-03-13T00:56:05;18.30;56.00
5520;DHT22;2782;52.362;10.012;2023-03-13T00:57:06;18.30;56.00
5520;DHT22;2782;52.362;10.012;2023-03-13T00:58:08;18.30;56.00
5520;DHT22;2782;52.362;10.012;2023-03-13T00:59:09;18.30;56.00
5520;DHT22;2782;52.362;10.012;2023-03-13T01:00:11;18.30;56.00
5520;DHT22;2782;52.362;10.012;2023-03-13T01:01:13;18.20;55.90
5520;DHT22;2782;52.362;10.012;2023-03-13T01:02:15;18.20;55.90
5520;DHT22;2782;52.362;10.012;2023-03-13T01:03:16;18.20;55.90
5520;DHT22;2782;52.362;10.012;2023-03-13T01:04:17;18.20;56.00
5520;DHT22;2782;52.362;10.012;2023-03-13T01:05:19;18.20;56.00
5520;DHT22;2782;52.362;10.012;2023-03-13T01:06:22;18.20;56.00
5520;DHT22;2782;52.362;10.012;2023-03-13T01:07:24;18.20;56.00
5520;DHT22;2782;52.362;10.012;2023-03-13T01:08:26;18.20;56.00
5520;DHT22;2782;52.362;10.012;2023-03-13T01:09:28;18.20;56.00
5520;DHT22;2782;52.362;10.012;2023-03-13T01:10:29;18.20;56.00
5520;DHT22;2782;52.362;10.012;2023-03-13T01:11:31;18.20;56.00
5520;DHT22;2782;52.362;10.012;2023-03-13T01:12:34;18.20;56.00
5520;DHT22;2782;52.362;10.012;2023-03-13T01:13:35;18.20;56.00
5520;DHT22;2782;52.362;10.012;2023-03-13T01:14:37;18.20;56.00
5520;DHT22;2782;52.362;10.012;2023-03-13T01:15:38;18.20;56.00
5520;DHT22;2782;52.362;10.012;2023-03-13T01:16:40;18.10;56.00
5520;DHT22;2782;52.362;10.012;2023-03-13T01:17:43;18.10;56.00
5520;DHT22;2782;52.362;10.012;2023-03-13T01:18:46;18.10;56.00
5520;DHT22;2782;52.362;10.012;2023-03-13T01:19:47;18.10;56.00
5520;DHT22;2782;52.362;10.012;2023-03-13T01:20:49;18.10;55.90
5520;DHT22;2782;52.362;10.012;2023-03-13T01:21:51;18.10;55.90
5520;DHT22;2782;52.362;10.012;2023-03-13T01:22:52;18.10;55.90
5520;DHT22;2782;52.362;10.012;2023-03-13T01:23:55;18.10;56.00
5520;DHT22;2782;52.362;10.012;2023-03-13T01:24:56;18.10;56.00
5520;DHT22;2782;52.362;10.012;2023-03-13T01:25:57;18.10;55.90
5520;DHT22;2782;52.362;10.012;2023-03-13T01:26:59;18.10;56.00
5520;DHT22;2782;52.362;10.012;2023-03-13T01:27:59;18.10;56.00
5520;DHT22;2782;52.362;10.012;2023-03-13T01:29:01;18.10;56.00
5520;DHT22;2782;52.362;10.012;2023-03-13T01:30:02;18.10;56.00
5520;DHT22;2782;52.362;10.012;2023-03-13T01:31:10;18.10;56.00
5520;DHT22;2782;52.362;10.012;2023-03-13T01:32:11;18.10;56.00
5520;DHT22;2782;52.362;10.012;2023-03-13T01:33:12;18.00;55.80
5520;DHT22;2782;52.362;10.012;2023-03-13T01:34:13;18.00;55.80
5520;DHT22;2782;52.362;10.012;2023-03-13T01:35:14;18.00;55.80
5520;DHT22;2782;52.362;10.012;2023-03-13T01:36:17;18.00;55.90
5520;DHT22;2782;52.362;10.012;2023-03-13T01:37:20;18.10;56.00
5520;DHT22;2782;52.362;10.012;2023-03-13T01:38:21;18.00;55.90
5520;DHT22;2782;52.362;10.012;2023-03-13T01:39:22;18.00;55.90
5520;DHT22;2782;52.362;10.012;2023-03-13T01:40:23;18.00;55.90
5520;DHT22;2782;52.362;10.012;2023-03-13T01:41:25;18.00;55.80
5520;DHT22;2782;52.362;10.012;2023-03-13T01:42:26;18.00;55.90
5520;DHT22;2782;52.362;10.012;2023-03-13T01:43:29;18.00;55.90
5520;DHT22;2782;52.362;10.012;2023-03-13T01:44:48;18.00;55.90
5520;DHT22;2782;52.362;10.012;2023-03-13T01:45:56;18.00;55.90
5520;DHT22;2782;52.362;10.012;2023-03-13T01:46:57;18.00;55.90
5520;DHT22;2782;52.362;10.012;2023-03-13T01:47:58;18.00;56.00
5520;DHT22;2782;52.362;10.012;2023-03-13T01:49:02;17.90;55.90
5520;DHT22;2782;52.362;10.012;2023-03-13T01:50:04;17.90;56.00
5520;DHT22;2782;52.362;10.012;2023-03-13T01:51:08;17.90;55.90
5520;DHT22;2782;52.362;10.012;2023-03-13T01:52:14;17.90;56.00
5520;DHT22;2782;52.362;10.012;2023-03-13T01:53:18;17.90;56.00
5520;DHT22;2782;52.362;10.012;2023-03-13T01:54:21;17.90;56.00
5520;DHT22;2782;52.362;10.012;2023-03-13T01:55:24;17.90;56.00
5520;DHT22;2782;52.362;10.012;2023-03-13T01:56:28;17.90;55.90
5520;DHT22;2782;52.362;10.012;2023-03-13T01:57:33;17.90;56.00
5520;DHT22;2782;52.362;10.012;2023-03-13T01:58:35;17.90;56.00
5520;DHT22;2782;52.362;10.012;2023-03-13T01:59:40;17.90;56.00
5520;DHT22;2782;52.362;10.012;2023-03-13T02:00:42;17.90;56.10
5520;DHT22;2782;52.362;10.012;2023-03-13T02:01:46;17.90;56.10
5520;DHT22;2782;52.362;10.012;2023-03-13T02:02:51;17.90;56.00
5520;DHT22;2782;52.362;10.012;2023-03-13T02:03:53;17.90;56.10
5520;DHT22;2782;52.362;10.012;2023-03-13T02:04:58;17.90;56.00
5520;DHT22;2782;52.362;10.012;2023-03-13T02:06:00;17.90;56.00
5520;DHT22;2782;52.362;10.012;2023-03-13T02:07:07;17.90;56.00
5520;DHT22;2782;52.362;10.012;2023-03-13T02:08:13;17.90;56.00
5520;DHT22;2782;52.362;10.012;2023-03-13T02:09:18;17.90;56.10
5520;DHT22;2782;52.362;10.012;2023-03-13T02:10:22;17.80;56.00
5520;DHT22;2782;52.362;10.012;2023-03-13T02:11:28;17.80;56.00
5520;DHT22;2782;52.362;10.012;2023-03-13T02:12:31;17.90;56.10
5520;DHT22;2782;52.362;10.012;2023-03-13T02:13:33;17.80;56.00
5520;DHT22;2782;52.362;10.012;2023-03-13T02:14:36;17.80;56.00
5520;DHT22;2782;52.362;10.012;2023-03-13T02:15:39;17.80;56.00
5520;DHT22;2782;52.362;10.012;2023-03-13T02:16:40;17.80;56.00
5520;DHT22;2782;52.362;10.012;2023-03-13T02:17:48;17.80;56.00
5520;DHT22;2782;52.362;10.012;2023-03-13T02:18:49;17.80;56.00
5520;DHT22;2782;52.362;10.012;2023-03-13T02:19:51;17.80;56.00
5520;DHT22;2782;52.362;10.012;2023-03-13T02:20:54;17.80;56.00
5520;DHT22;2782;52.362;10.012;2023-03-13T02:22:03;17.80;56.10
5520;DHT22;2782;52.362;10.012;2023-03-13T02:23:12;17.80;56.00
5520;DHT22;2782;52.362;10.012;2023-03-13T02:24:22;17.80;56.10
5520;DHT22;2782;52.362;10.012;2023-03-13T02:25:34;17.80;56.10
5520;DHT22;2782;52.362;10.012;2023-03-13T02:26:36;17.80;56.10
5520;DHT22;2782;52.362;10.012;2023-03-13T02:27:37;17.70;56.00
5520;DHT22;2782;52.362;10.012;2023-03-13T02:28:40;17.70;56.00
5520;DHT22;2782;52.362;10.012;2023-03-13T02:29:41;17.80;56.10
5520;DHT22;2782;52.362;10.012;2023-03-13T02:30:43;17.70;56.10
5520;DHT22;2782;52.362;10.012;2023-03-13T02:31:45;17.70;56.10
5520;DHT22;2782;52.362;10.012;2023-03-13T02:32:47;17.70;56.10
5520;DHT22;2782;52.362;10.012;2023-03-13T02:33:48;17.70;56.10
5520;DHT22;2782;52.362;10.012;2023-03-13T02:34:53;17.70;56.10
5520;DHT22;2782;52.362;10.012;2023-03-13T02:35:55;17.70;56.10
5520;DHT22;2782;52.362;10.012;2023-03-13T02:36:57;17.70;56.10
5520;DHT22;2782;52.362;10.012;2023-03-13T02:38:01;17.70;56.10
5520;DHT22;2782;52.362;10.012;2023-03-13T02:39:05;17.70;56.00
5520;DHT22;2782;52.362;10.012;2023-03-13T02:40:09;17.70;56.00
5520;DHT22;2782;52.362;10.012;2023-03-13T02:41:14;17.70;56.10
5520;DHT22;2782;52.362;10.012;2023-03-13T02:42:17;17.70;56.10
5520;DHT22;2782;52.362;10.012;2023-03-13T02:43:22;17.70;56.10
5520;DHT22;2782;52.362;10.012;2023-03-13T02:44:24;17.70;56.20
5520;DHT22;2782;52.362;10.012;2023-03-13T02:45:25;17.70;56.20
5520;DHT22;2782;52.362;10.012;2023-03-13T02:46:27;17.70;56.10
5520;DHT22;2782;52.362;10.012;2023-03-13T02:47:29;17.70;56.10
5520;DHT22;2782;52.362;10.012;2023-03-13T02:48:31;17.70;56.10
5520;DHT22;2782;52.362;10.012;2023-03-13T02:49:33;17.70;56.20
5520;DHT22;2782;52.362;10.012;2023-03-13T02:50:34;17.70;56.20
5520;DHT22;2782;52.362;10.012;2023-03-13T02:51:40;17.70;56.20
5520;DHT22;2782;52.362;10.012;2023-03-13T02:52:43;17.70;56.20
5520;DHT22;2782;52.362;10.012;2023-03-13T02:53:48;17.70;56.20
5520;DHT22;2782;52.362;10.012;2023-03-13T02:54:51;17.70;56.20
5520;DHT22;2782;52.362;10.012;2023-03-13T02:55:56;17.70;56.20
5520;DHT22;2782;52.362;10.012;2023-03-13T02:57:01;17.70;56.20
5520;DHT22;2782;52.362;10.012;2023-03-13T02:58:03;17.60;56.10
5520;DHT22;2782;52.362;10.012;2023-03-13T02:59:04;17.60;56.20
5520;DHT22;2782;52.362;10.012;2023-03-13T03:00:07;17.60;56.10
5520;DHT22;2782;52.362;10.012;2023-03-13T03:01:11;17.60;56.20
5520;DHT22;2782;52.362;10.012;2023-03-13T03:02:13;17.60;56.20
5520;DHT22;2782;52.362;10.012;2023-03-13T03:03:14;17.60;56.20
5520;DHT22;2782;52.362;10.012;2023-03-13T03:04:15;17.60;56.20
5520;DHT22;2782;52.362;10.012;2023-03-13T03:05:16;17.60;56.20
5520;DHT22;2782;52.362;10.012;2023-03-13T03:06:18;17.60;56.20
5520;DHT22;2782;52.362;10.012;2023-03-13T03:07:19;17.60;56.20
5520;DHT22;2782;52.362;10.012;2023-03-13T03:08:20;17.60;56.20
5520;DHT22;2782;52.362;10.012;2023-03-13T03:09:22;17.60;56.20
5520;DHT22;2782;52.362;10.012;2023-03-13T03:10:23;17.60;56.20
5520;DHT22;2782;52.362;10.012;2023-03-13T03:11:24;17.60;56.20
5520;DHT22;2782;52.362;10.012;2023-03-13T03:12:27;17.60;56.10
5520;DHT22;2782;52.362;10.012;2023-03-13T03:13:27;17.60;56.10
5520;DHT22;2782;52.362;10.012;2023-03-13T03:14:30;17.60;56.10
5520;DHT22;2782;52.362;10.012;2023-03-13T03:15:30;17.60;56.20
5520;DHT22;2782;52.362;10.012;2023-03-13T03:16:32;17.60;56.20
5520;DHT22;2782;52.362;10.012;2023-03-13T03:17:32;17.50;56.20
5520;DHT22;2782;52.362;10.012;2023-03-13T03:18:34;17.60;56.30
5520;DHT22;2782;52.362;10.012;2023-03-13T03:19:35;17.60;56.30
5520;DHT22;2782;52.362;10.012;2023-03-13T03:20:37;17.50;56.20
5520;DHT22;2782;52.362;10.012;2023-03-13T03:21:38;17.50;56.20
5520;DHT22;2782;52.362;10.012;2023-03-13T03:22:39;17.50;56.20
5520;DHT22;2782;52.362;10.012;2023-03-13T03:23:40;17.60;56.30
5520;DHT22;2782;52.362;10.012;2023-03-13T03:24:42;17.50;56.20
5520;DHT22;2782;52.362;10.012;2023-03-13T03:25:42;17.50;56.20
5520;DHT22;2782;52.362;10.012;2023-03-13T03:26:44;17.50;56.20
5520;DHT22;2782;52.362;10.012;2023-03-13T03:27:46;17.60;56.30
5520;DHT22;2782;52.362;10.012;2023-03-13T03:28:48;17.50;56.20
5520;DHT22;2782;52.362;10.012;2023-03-13T03:29:48;17.50;56.20
5520;DHT22;2782;52.362;10.012;2023-03-13T03:30:50;17.50;56.30
5520;DHT22;2782;52.362;10.012;2023-03-13T03:31:53;17.50;56.30
5520;DHT22;2782;52.362;10.012;2023-03-13T03:32:55;17.50;56.30
5520;DHT22;2782;52.362;10.012;2023-03-13T03:33:56;17.50;56.30
5520;DHT22;2782;52.362;10.012;2023-03-13T03:34:57;17.50;56.40
5520;DHT22;2782;52.362;10.012;2023-03-13T03:35:59;17.50;56.40
5520;DHT22;2782;52.362;10.012;2023-03-13T03:37:01;17.50;56.40
5520;DHT22;2782;52.362;10.012;2023-03-13T03:38:02;17.50;56.40
5520;DHT22;2782;52.362;10.012;2023-03-13T03:39:03;17.50;56.40
5520;DHT22;2782;52.362;10.012;2023-03-13T03:40:06;17.50;56.40
5520;DHT22;2782;52.362;10.012;2023-03-13T03:41:07;17.50;56.40
5520;DHT22;2782;52.362;10.012;2023-03-13T03:42:10;17.50;56.40
5520;DHT22;2782;52.362;10.012;2023-03-13T03:43:12;17.50;56.40
5520;DHT22;2782;52.362;10.012;2023-03-13T03:44:14;17.50;56.40
5520;DHT22;2782;52.362;10.012;2023-03-13T03:45:14;17.50;56.40
5520;DHT22;2782;52.362;10.012;2023-03-13T03:46:16;17.50;56.40
5520;DHT22;2782;52.362;10.012;2023-03-13T03:47:17;17.50;56.40
5520;DHT22;2782;52.362;10.012;2023-03-13T03:48:18;17.50;56.50
5520;DHT22;2782;52.362;10.012;2023-03-13T03:49:19;17.50;56.50
5520;DHT22;2782;52.362;10.012;2023-03-13T03:50:20;17.50;56.40
5520;DHT22;2782;52.362;10.012;2023-03-13T03:51:21;17.40;56.40
5520;DHT22;2782;52.362;10.012;2023-03-13T03:52:23;17.40;56.40
5520;DHT22;2782;52.362;10.012;2023-03-13T03:53:24;17.50;56.40
5520;DHT22;2782;52.362;10.012;2023-03-13T03:54:26;17.40;56.40
5520;DHT22;2782;52.362;10.012;2023-03-13T03:55:26;17.40;56.40
5520;DHT22;2782;52.362;10.012;2023-03-13T03:56:28;17.40;56.40
5520;DHT22;2782;52.362;10.012;2023-03-13T03:57:29;17.50;56.40
5520;DHT22;2782;52.362;10.012;2023-03-13T03:58:32;17.40;56.40
5520;DHT22;2782;52.362;10.012;2023-03-13T03:59:32;17.40;56.40
5520;DHT22;2782;52.362;10.012;2023-03-13T04:00:34;17.40;56.40
5520;DHT22;2782;52.362;10.012;2023-03-13T04:01:35;17.40;56.40
5520;DHT22;2782;52.362;10.012;2023-03-13T04:02:36;17.40;56.40
5520;DHT22;2782;52.362;10.012;2023-03-13T04:03:37;17.40;56.40
5520;DHT22;2782;52.362;10.012;2023-03-13T04:04:40;17.40;56.40
5520;DHT22;2782;52.362;10.012;2023-03-13T04:05:40;17.40;56.40
5520;DHT22;2782;52.362;10.012;2023-03-13T04:06:42;17.40;56.40
5520;DHT22;2782;52.362;10.012;2023-03-13T04:07:43;17.40;56.40
5520;DHT22;2782;52.362;10.012;2023-03-13T04:08:44;17.40;56.40
5520;DHT22;2782;52.362;10.012;2023-03-13T04:09:45;17.40;56.40
5520;DHT22;2782;52.362;10.012;2023-03-13T04:10:47;17.40;56.40
5520;DHT22;2782;52.362;10.012;2023-03-13T04:11:47;17.40;56.40
5520;DHT22;2782;52.362;10.012;2023-03-13T04:12:50;17.40;56.40
5520;DHT22;2782;52.362;10.012;2023-03-13T04:13:52;17.40;56.40
5520;DHT22;2782;52.362;10.012;2023-03-13T04:14:53;17.40;56.40
5520;DHT22;2782;52.362;10.012;2023-03-13T04:15:54;17.40;56.50
5520;DHT22;2782;52.362;10.012;2023-03-13T04:16:55;17.40;56.50
5520;DHT22;2782;52.362;10.012;2023-03-13T04:17:56;17.40;56.50
5520;DHT22;2782;52.362;10.012;2023-03-13T04:18:58;17.40;56.50
5520;DHT22;2782;52.362;10.012;2023-03-13T04:19:58;17.40;56.50
5520;DHT22;2782;52.362;10.012;2023-03-13T04:21:04;17.40;56.50
5520;DHT22;2782;52.362;10.012;2023-03-13T04:22:05;17.40;56.50
5520;DHT22;2782;52.362;10.012;2023-03-13T04:23:06;17.40;56.50
5520;DHT22;2782;52.362;10.012;2023-03-13T04:24:07;17.40;56.50
5520;DHT22;2782;52.362;10.012;2023-03-13T04:25:09;17.30;56.40
5520;DHT22;2782;52.362;10.012;2023-03-13T04:26:10;17.30;56.40
5520;DHT22;2782;52.362;10.012;2023-03-13T04:27:12;17.30;56.40
5520;DHT22;2782;52.362;10.012;2023-03-13T04:28:12;17.30;56.40
5520;DHT22;2782;52.362;10.012;2023-03-13T04:29:15;17.30;56.40
5520;DHT22;2782;52.362;10.012;2023-03-13T04:30:16;17.30;56.40
5520;DHT22;2782;52.362;10.012;2023-03-13T04:31:17;17.30;56.40
5520;DHT22;2782;52.362;10.012;2023-03-13T04:32:18;17.30;56.40
5520;DHT22;2782;52.362;10.012;2023-03-13T04:33:20;17.40;56.50
5520;DHT22;2782;52.362;10.012;2023-03-13T04:34:20;17.30;56.40
5520;DHT22;2782;52.362;10.012;2023-03-13T04:35:22;17.30;56.40
5520;DHT22;2782;52.362;10.012;2023-03-13T04:36:22;17.40;56.50
5520;DHT22;2782;52.362;10.012;2023-03-13T04:37:24;17.40;56.50
5520;DHT22;2782;52.362;10.012;2023-03-13T04:38:25;17.30;56.40
5520;DHT22;2782;52.362;10.012;2023-03-13T04:39:26;17.30;56.40
5520;DHT22;2782;52.362;10.012;2023-03-13T04:40:27;17.30;56.40
5520;DHT22;2782;52.362;10.012;2023-03-13T04:41:29;17.30;56.50
5520;DHT22;2782;52.362;10.012;2023-03-13T04:42:29;17.30;56.40
5520;DHT22;2782;52.362;10.012;2023-03-13T04:43:31;17.30;56.50
5520;DHT22;2782;52.362;10.012;2023-03-13T04:44:33;17.30;56.40
5520;DHT22;2782;52.362;10.012;2023-03-13T04:45:34;17.30;56.40
5520;DHT22;2782;52.362;10.012;2023-03-13T04:46:35;17.30;56.40
5520;DHT22;2782;52.362;10.012;2023-03-13T04:47:36;17.30;56.40
5520;DHT22;2782;52.362;10.012;2023-03-13T04:48:37;17.30;56.50
5520;DHT22;2782;52.362;10.012;2023-03-13T04:49:39;17.30;56.50
5520;DHT22;2782;52.362;10.012;2023-03-13T04:50:39;17.30;56.50
5520;DHT22;2782;52.362;10.012;2023-03-13T04:51:41;17.30;56.50
5520;DHT22;2782;52.362;10.012;2023-03-13T04:52:42;17.30;56.50
5520;DHT22;2782;52.362;10.012;2023-03-13T04:53:44;17.30;56.50
5520;DHT22;2782;52.362;10.012;2023-03-13T04:54:44;17.30;56.50
5520;DHT22;2782;52.362;10.012;2023-03-13T04:55:47;17.30;56.50
5520;DHT22;2782;52.362;10.012;2023-03-13T04:56:49;17.30;56.50
5520;DHT22;2782;52.362;10.012;2023-03-13T04:57:50;17.30;56.50
5520;DHT22;2782;52.362;10.012;2023-03-13T04:58:51;17.30;56.50
5520;DHT22;2782;52.362;10.012;2023-03-13T04:59:54;17.30;56.50
5520;DHT22;2782;52.362;10.012;2023-03-13T05:00:55;17.20;56.50
5520;DHT22;2782;52.362;10.012;2023-03-13T05:01:57;17.30;56.50
5520;DHT22;2782;52.362;10.012;2023-03-13T05:02:57;17.20;56.50
5520;DHT22;2782;52.362;10.012;2023-03-13T05:03:59;17.30;56.60
5520;DHT22;2782;52.362;10.012;2023-03-13T05:05:00;17.20;56.50
5520;DHT22;2782;52.362;10.012;2023-03-13T05:06:02;17.20;56.50
5520;DHT22;2782;52.362;10.012;2023-03-13T05:07:03;17.20;56.50
5520;DHT22;2782;52.362;10.012;2023-03-13T05:08:04;17.20;56.50
5520;DHT22;2782;52.362;10.012;2023-03-13T05:09:05;17.20;56.60
5520;DHT22;2782;52.362;10.012;2023-03-13T05:10:08;17.20;56.60
5520;DHT22;2782;52.362;10.012;2023-03-13T05:11:09;17.20;56.60
5520;DHT22;2782;52.362;10.012;2023-03-13T05:12:11;17.20;56.60
5520;DHT22;2782;52.362;10.012;2023-03-13T05:13:12;17.20;56.60
5520;DHT22;2782;52.362;10.012;2023-03-13T05:14:13;17.20;56.70
5520;DHT22;2782;52.362;10.012;2023-03-13T05:15:15;17.20;56.70
5520;DHT22;2782;52.362;10.012;2023-03-13T05:16:17;17.20;56.70
5520;DHT22;2782;52.362;10.012;2023-03-13T05:17:18;17.20;56.70
5520;DHT22;2782;52.362;10.012;2023-03-13T05:18:19;17.20;56.80
5520;DHT22;2782;52.362;10.012;2023-03-13T05:19:20;17.20;56.80
5520;DHT22;2782;52.362;10.012;2023-03-13T05:20:21;17.20;56.80
5520;DHT22;2782;52.362;10.012;2023-03-13T05:21:22;17.20;56.80
5520;DHT22;2782;52.362;10.012;2023-03-13T05:22:24;17.20;56.80
5520;DHT22;2782;52.362;10.012;2023-03-13T05:23:24;17.20;56.90
5520;DHT22;2782;52.362;10.012;2023-03-13T05:24:26;17.20;56.80
5520;DHT22;2782;52.362;10.012;2023-03-13T05:25:26;17.20;56.80
5520;DHT22;2782;52.362;10.012;2023-03-13T05:26:28;17.20;56.90
5520;DHT22;2782;52.362;10.012;2023-03-13T05:27:29;17.20;56.90
5520;DHT22;2782;52.362;10.012;2023-03-13T05:28:30;17.30;57.00
5520;DHT22;2782;52.362;10.012;2023-03-13T05:29:31;17.20;56.90
5520;DHT22;2782;52.362;10.012;2023-03-13T05:30:34;17.20;56.90
5520;DHT22;2782;52.362;10.012;2023-03-13T05:31:35;17.20;56.90
5520;DHT22;2782;52.362;10.012;2023-03-13T05:32:36;17.20;56.90
5520;DHT22;2782;52.362;10.012;2023-03-13T05:33:37;17.20;57.00
5520;DHT22;2782;52.362;10.012;2023-03-13T05:34:39;17.30;57.10
5520;DHT22;2782;52.362;10.012;2023-03-13T05:35:39;17.30;57.20
5520;DHT22;2782;52.362;10.012;2023-03-13T05:36:41;17.30;57.20
5520;DHT22;2782;52.362;10.012;2023-03-13T05:37:42;17.30;57.20
5520;DHT22;2782;52.362;10.012;2023-03-13T05:38:45;17.30;57.20
5520;DHT22;2782;52.362;10.012;2023-03-13T05:39:45;17.30;58.00
5520;DHT22;2782;52.362;10.012;2023-03-13T05:40:47;17.30;59.00
5520;DHT22;2782;52.362;10.012;2023-03-13T05:41:47;17.30;58.50
5520;DHT22;2782;52.362;10.012;2023-03-13T05:42:49;17.30;58.10
5520;DHT22;2782;52.362;10.012;2023-03-13T05:43:49;17.30;57.90
5520;DHT22;2782;52.362;10.012;2023-03-13T05:44:51;17.40;58.40
5520;DHT22;2782;52.362;10.012;2023-03-13T05:45:53;17.40;58.00
5520;DHT22;2782;52.362;10.012;2023-03-13T05:46:55;17.40;58.10
5520;DHT22;2782;52.362;10.012;2023-03-13T05:47:57;17.40;58.00
5520;DHT22;2782;52.362;10.012;2023-03-13T05:48:59;17.40;58.00
5520;DHT22;2782;52.362;10.012;2023-03-13T05:49:59;17.40;58.00
5520;DHT22;2782;52.362;10.012;2023-03-13T05:51:02;17.50;58.20
5520;DHT22;2782;52.362;10.012;2023-03-13T05:52:04;17.40;58.20
5520;DHT22;2782;52.362;10.012;2023-03-13T05:53:05;17.40;58.20
5520;DHT22;2782;52.362;10.012;2023-03-13T05:54:06;17.40;58.20
5520;DHT22;2782;52.362;10.012;2023-03-13T05:55:07;17.40;58.30
5520;DHT22;2782;52.362;10.012;2023-03-13T05:56:09;17.50;58.50
5520;DHT22;2782;52.362;10.012;2023-03-13T05:57:10;17.40;58.40
5520;DHT22;2782;52.362;10.012;2023-03-13T05:58:12;17.40;58.30
5520;DHT22;2782;52.362;10.012;2023-03-13T05:59:12;17.40;58.20
5520;DHT22;2782;52.362;10.012;2023-03-13T06:00:15;17.40;58.30
5520;DHT22;2782;52.362;10.012;2023-03-13T06:01:18;17.40;58.20
5520;DHT22;2782;52.362;10.012;2023-03-13T06:02:19;17.40;58.30
5520;DHT22;2782;52.362;10.012;2023-03-13T06:03:20;17.40;58.30
5520;DHT22;2782;52.362;10.012;2023-03-13T06:04:22;17.40;58.90
5520;DHT22;2782;52.362;10.012;2023-03-13T06:05:22;17.40;58.40
5520;DHT22;2782;52.362;10.012;2023-03-13T06:06:24;17.40;58.40
5520;DHT22;2782;52.362;10.012;2023-03-13T06:07:25;17.40;58.60
5520;DHT22;2782;52.362;10.012;2023-03-13T06:08:27;17.50;58.70
5520;DHT22;2782;52.362;10.012;2023-03-13T06:09:29;17.50;58.70
5520;DHT22;2782;52.362;10.012;2023-03-13T06:10:30;17.50;58.70
5520;DHT22;2782;52.362;10.012;2023-03-13T06:11:31;17.50;58.70
5520;DHT22;2782;52.362;10.012;2023-03-13T06:12:33;17.50;58.70
5520;DHT22;2782;52.362;10.012;2023-03-13T06:13:35;17.50;58.70
5520;DHT22;2782;52.362;10.012;2023-03-13T06:14:38;17.50;58.70
5520;DHT22;2782;52.362;10.012;2023-03-13T06:15:39;17.50;58.70
5520;DHT22;2782;52.362;10.012;2023-03-13T06:16:42;17.50;58.70
5520;DHT22;2782;52.362;10.012;2023-03-13T06:17:43;17.50;58.70
5520;DHT22;2782;52.362;10.012;2023-03-13T06:18:45;17.50;58.70
5520;DHT22;2782;52.362;10.012;2023-03-13T06:19:45;17.50;58.80
5520;DHT22;2782;52.362;10.012;2023-03-13T06:20:47;17.50;59.40
5520;DHT22;2782;52.362;10.012;2023-03-13T06:21:48;17.50;58.80
5520;DHT22;2782;52.362;10.012;2023-03-13T06:22:50;17.50;58.80
5520;DHT22;2782;52.362;10.012;2023-03-13T06:23:53;17.50;58.80
5520;DHT22;2782;52.362;10.012;2023-03-13T06:24:54;17.50;58.90
5520;DHT22;2782;52.362;10.012;2023-03-13T06:25:56;17.40;58.70
5520;DHT22;2782;52.362;10.012;2023-03-13T06:26:57;17.50;58.70
5520;DHT22;2782;52.362;10.012;2023-03-13T06:27:58;17.50;58.70
5520;DHT22;2782;52.362;10.012;2023-03-13T06:28:59;17.50;58.70
5520;DHT22;2782;52.362;10.012;2023-03-13T06:30:00;17.50;58.90
5520;DHT22;2782;52.362;10.012;2023-03-13T06:31:03;17.50;58.80
5520;DHT22;2782;52.362;10.012;2023-03-13T06:32:06;17.50;58.70
5520;DHT22;2782;52.362;10.012;2023-03-13T06:33:08;17.50;58.80
5520;DHT22;2782;52.362;10.012;2023-03-13T06:34:10;17.50;58.80
5520;DHT22;2782;52.362;10.012;2023-03-13T06:35:12;17.50;58.80
5520;DHT22;2782;52.362;10.012;2023-03-13T06:36:12;17.50;58.80
5520;DHT22;2782;52.362;10.012;2023-03-13T06:37:14;17.50;58.80